Time;durP1;ratioP1;P1;durP2;ratioP2;P2;SDS_P1;SDS_P2;PMS_P1;PMS_P2;Temp;Humidity;BMP_temperature;BMP_pressure;BME280_temperature;BME280_humidity;BME280_pressure;Samples;Min_cycle;Max_cycle;Signal;HPM_P1;HPM_P2
2024/03/24 00:00:26;;;;;;;4.13;2.20;;;11.00;95.30;;;;;;5016940;28;20415;-28
2024/03/24 00:02:52;;;;;;;2.40;1.77;;;11.00;95.30;;;;;;4999080;28;21224;-27
2024/03/24 00:05:18;;;;;;;3.20;1.80;;;11.00;95.30;;;;;;5023579;28;20510;-27
2024/03/24 00:07:44;;;;;;;3.20;1.60;;;11.10;95.40;;;;;;4999960;28;20455;-28
2024/03/24 00:10:13;;;;;;;4.10;2.20;;;11.00;95.30;;;;;;5018280;28;20420;-29
2024/03/24 00:12:40;;;;;;;2.80;1.93;;;11.00;95.30;;;;;;4997178;28;20459;-26
2024/03/24 00:15:06;;;;;;;4.20;1.70;;;11.00;95.30;;;;;;4998358;28;20428;-27
2024/03/24 00:17:32;;;;;;;2.60;2.00;;;11.00;95.40;;;;;;4998132;28;20986;-27
2024/03/24 00:20:00;;;;;;;3.80;2.33;;;11.00;95.30;;;;;;5020459;28;20470;-28
2024/03/24 00:22:26;;;;;;;3.03;2.73;;;11.00;95.40;;;;;;5020207;28;20543;-29
2024/03/24 00:24:52;;;;;;;7.10;2.40;;;11.00;95.40;;;;;;5019016;28;21140;-29
2024/03/24 00:27:19;;;;;;;3.70;1.40;;;11.00;95.40;;;;;;5018769;28;20517;-29
2024/03/24 00:29:44;;;;;;;2.23;1.90;;;11.00;95.50;;;;;;4998169;28;20435;-27
2024/03/24 00:32:15;;;;;;;7.60;1.87;;;11.00;95.50;;;;;;4993472;28;20463;-27
2024/03/24 00:34:41;;;;;;;5.23;2.17;;;10.90;95.40;;;;;;5000600;28;20814;-27
2024/03/24 00:37:09;;;;;;;3.10;1.80;;;11.00;95.40;;;;;;5000321;28;20459;-27
2024/03/24 00:39:36;;;;;;;3.73;2.23;;;10.90;95.50;;;;;;5023193;28;20451;-27
2024/03/24 00:42:02;;;;;;;4.17;1.80;;;10.90;95.40;;;;;;5017082;28;20699;-28
2024/03/24 00:44:31;;;;;;;3.90;2.30;;;10.90;95.50;;;;;;5023443;28;20446;-27
2024/03/24 00:46:57;;;;;;;2.37;1.83;;;10.90;95.50;;;;;;5020818;28;20455;-27
2024/03/24 00:49:23;;;;;;;2.70;2.10;;;10.90;95.50;;;;;;5020621;28;20460;-28
2024/03/24 00:51:49;;;;;;;2.57;2.10;;;10.90;95.50;;;;;;5016551;28;20467;-27
2024/03/24 00:54:18;;;;;;;3.27;1.80;;;10.90;95.50;;;;;;4973909;28;20474;-27
2024/03/24 00:56:44;;;;;;;2.73;1.97;;;10.90;95.50;;;;;;5016232;28;20436;-30
2024/03/24 00:59:10;;;;;;;2.77;2.00;;;10.90;95.60;;;;;;4997845;28;20993;-27
2024/03/24 01:01:36;;;;;;;2.00;1.80;;;10.90;95.50;;;;;;5007468;28;20556;-29
2024/03/24 01:04:02;;;;;;;3.43;2.17;;;10.90;95.60;;;;;;5024253;28;20427;-29
2024/03/24 01:06:29;;;;;;;1.93;1.73;;;10.90;95.60;;;;;;5016917;28;21374;-27
2024/03/24 01:08:55;;;;;;;4.77;2.00;;;10.90;95.60;;;;;;5019140;28;20439;-29
2024/03/24 01:11:24;;;;;;;3.10;2.20;;;10.80;95.60;;;;;;5016844;28;20520;-28
2024/03/24 01:13:50;;;;;;;4.23;2.53;;;10.90;95.60;;;;;;5016388;28;20459;-28
2024/03/24 01:16:16;;;;;;;3.77;2.33;;;10.80;95.60;;;;;;5005132;28;20428;-27
2024/03/24 01:18:47;;;;;;;4.30;2.37;;;10.80;95.50;;;;;;5003892;28;20510;-28
2024/03/24 01:21:13;;;;;;;4.67;2.73;;;10.80;95.60;;;;;;5017007;28;20509;-27
2024/03/24 01:23:39;;;;;;;2.73;2.10;;;10.80;95.50;;;;;;5018852;28;20450;-31
2024/03/24 01:26:05;;;;;;;3.60;2.10;;;10.80;95.50;;;;;;5017157;28;20431;-28
2024/03/24 01:28:34;;;;;;;3.10;1.90;;;10.80;95.50;;;;;;5021892;28;20466;-27
2024/03/24 01:31:00;;;;;;;3.23;2.30;;;10.80;95.50;;;;;;4997973;28;21207;-27
2024/03/24 01:33:29;;;;;;;4.77;2.20;;;10.80;95.50;;;;;;5012505;28;20450;-27
2024/03/24 01:35:55;;;;;;;3.10;2.10;;;10.80;95.60;;;;;;4994611;28;20503;-27
2024/03/24 01:38:23;;;;;;;4.07;2.37;;;10.80;95.50;;;;;;5014706;28;20458;-29
2024/03/24 01:40:50;;;;;;;3.00;2.33;;;10.80;95.60;;;;;;4996745;28;20443;-27
2024/03/24 01:43:17;;;;;;;3.70;2.30;;;10.80;95.60;;;;;;5018184;28;20451;-27
2024/03/24 01:45:46;;;;;;;5.50;2.20;;;10.70;95.50;;;;;;5008084;28;20423;-28
2024/03/24 01:48:14;;;;;;;2.53;2.30;;;10.70;95.80;;;;;;5021037;28;20444;-27
2024/03/24 01:50:40;;;;;;;4.13;3.17;;;10.70;95.60;;;;;;5020550;28;20503;-26
2024/03/24 01:53:10;;;;;;;4.50;2.50;;;10.70;95.60;;;;;;5023111;28;20466;-26
2024/03/24 01:55:37;;;;;;;6.30;2.80;;;10.70;95.60;;;;;;5004006;28;20454;-27
2024/03/24 01:58:06;;;;;;;5.73;2.37;;;10.70;95.60;;;;;;5024021;28;20435;-27
2024/03/24 02:00:34;;;;;;;2.83;2.63;;;10.70;95.60;;;;;;5025490;28;20492;-27
2024/03/24 02:03:00;;;;;;;3.03;2.23;;;10.70;95.60;;;;;;5021656;28;21026;-26
2024/03/24 02:05:27;;;;;;;4.37;2.47;;;10.70;95.60;;;;;;5005396;28;20428;-28
2024/03/24 02:07:54;;;;;;;4.50;2.47;;;10.70;95.60;;;;;;5027520;28;20453;-28
2024/03/24 02:10:25;;;;;;;3.07;2.60;;;10.70;95.70;;;;;;5002990;28;20435;-27
2024/03/24 02:12:53;;;;;;;5.30;2.27;;;10.70;95.70;;;;;;5004526;28;20511;-27
2024/03/24 02:15:20;;;;;;;3.03;2.30;;;10.60;95.60;;;;;;5022786;28;20444;-29
2024/03/24 02:17:46;;;;;;;3.67;2.80;;;10.60;95.70;;;;;;5021324;28;20546;-27
2024/03/24 02:20:15;;;;;;;6.10;3.13;;;10.60;95.70;;;;;;5019906;28;20857;-30
2024/03/24 02:22:42;;;;;;;2.83;2.40;;;10.60;95.70;;;;;;5019075;28;21262;-30
2024/03/24 02:25:09;;;;;;;3.50;2.93;;;10.60;95.70;;;;;;5019585;28;21757;-28
2024/03/24 02:27:35;;;;;;;4.90;2.70;;;10.60;95.70;;;;;;4999402;28;20448;-30
2024/03/24 02:30:01;;;;;;;7.73;2.80;;;10.60;95.70;;;;;;4983939;28;20502;-31
2024/03/24 02:32:30;;;;;;;2.40;2.20;;;10.60;95.80;;;;;;5018877;28;21213;-27
2024/03/24 02:34:59;;;;;;;3.40;2.77;;;10.60;95.80;;;;;;5017919;28;20501;-27
2024/03/24 02:37:25;;;;;;;4.00;2.67;;;10.60;95.80;;;;;;5022709;28;20440;-29
2024/03/24 02:39:53;;;;;;;3.83;2.87;;;10.60;95.80;;;;;;5005445;28;20466;-29
2024/03/24 02:42:19;;;;;;;4.37;2.70;;;10.60;95.80;;;;;;5001612;28;21299;-28
2024/03/24 02:44:46;;;;;;;4.80;2.70;;;10.60;95.90;;;;;;5019647;28;20423;-28
2024/03/24 02:47:15;;;;;;;4.13;2.83;;;10.60;96.20;;;;;;5024069;28;20747;-28
2024/03/24 02:49:43;;;;;;;3.50;2.73;;;10.60;95.90;;;;;;5021002;28;20428;-27
2024/03/24 02:52:09;;;;;;;3.20;2.73;;;10.50;95.90;;;;;;5000970;28;20518;-30
2024/03/24 02:54:36;;;;;;;3.77;2.80;;;10.50;96.00;;;;;;5002553;28;20466;-29
2024/03/24 02:57:02;;;;;;;3.13;2.63;;;10.50;96.00;;;;;;5003549;28;20950;-29
2024/03/24 02:59:28;;;;;;;4.53;2.77;;;10.50;96.10;;;;;;5003955;28;20420;-32
2024/03/24 03:01:57;;;;;;;4.77;3.30;;;10.50;96.10;;;;;;5021220;28;20408;-30
2024/03/24 03:04:25;;;;;;;5.80;2.60;;;10.50;96.20;;;;;;5020006;28;20443;-31
2024/03/24 03:06:53;;;;;;;3.63;2.97;;;10.50;96.20;;;;;;5002569;28;20466;-30
2024/03/24 03:09:19;;;;;;;3.27;2.27;;;10.50;96.30;;;;;;5003042;28;20408;-29
2024/03/24 03:11:45;;;;;;;4.20;3.20;;;10.50;96.40;;;;;;5003079;28;20482;-29
2024/03/24 03:14:11;;;;;;;4.63;2.90;;;10.50;96.40;;;;;;5002162;28;21006;-33
2024/03/24 03:16:38;;;;;;;2.80;2.60;;;10.50;96.50;;;;;;5019857;28;20427;-29
2024/03/24 03:19:04;;;;;;;3.93;2.77;;;10.50;96.50;;;;;;4985360;28;20463;-30
2024/03/24 03:21:36;;;;;;;3.00;2.57;;;10.50;96.50;;;;;;5019611;28;20439;-28
2024/03/24 03:24:05;;;;;;;5.77;2.97;;;10.40;96.50;;;;;;5001542;28;20422;-30
2024/03/24 03:26:33;;;;;;;3.30;2.60;;;10.40;96.50;;;;;;5019236;28;20443;-32
2024/03/24 03:29:01;;;;;;;3.10;2.27;;;10.40;96.60;;;;;;5001434;28;21299;-32
2024/03/24 03:31:29;;;;;;;4.13;2.37;;;10.40;96.60;;;;;;5018355;28;20467;-32
2024/03/24 03:33:55;;;;;;;3.90;2.80;;;10.40;96.60;;;;;;5018273;28;21040;-31
2024/03/24 03:36:23;;;;;;;5.07;2.53;;;10.40;96.60;;;;;;5018603;28;20414;-29
2024/03/24 03:38:51;;;;;;;3.70;2.80;;;10.40;96.60;;;;;;5018352;28;20705;-29
2024/03/24 03:41:17;;;;;;;5.47;2.57;;;10.40;96.70;;;;;;5001077;28;20416;-29
2024/03/24 03:43:43;;;;;;;2.80;2.50;;;10.40;96.60;;;;;;5019396;28;20416;-32
2024/03/24 03:46:11;;;;;;;5.03;2.80;;;10.40;96.70;;;;;;5002032;28;20423;-29
2024/03/24 03:48:42;;;;;;;2.73;2.50;;;10.40;96.60;;;;;;5001921;28;21052;-29
2024/03/24 03:51:29;;;;;;;3.40;2.63;;;10.30;96.70;;;;;;5019962;28;20479;-29
2024/03/24 03:53:58;;;;;;;3.40;2.57;;;10.30;96.60;;;;;;5000984;28;20800;-32
2024/03/24 03:56:24;;;;;;;3.50;2.70;;;10.40;96.70;;;;;;5019276;28;20427;-31
2024/03/24 03:58:50;;;;;;;3.87;2.13;;;10.30;96.70;;;;;;5020072;28;20440;-32
2024/03/24 04:01:18;;;;;;;3.30;2.43;;;10.30;96.70;;;;;;5020505;28;20423;-31
2024/03/24 04:03:47;;;;;;;5.27;2.37;;;10.30;96.70;;;;;;5003127;28;20451;-26
2024/03/24 04:06:13;;;;;;;4.77;2.77;;;10.30;96.70;;;;;;5020987;28;20796;-29
2024/03/24 04:08:40;;;;;;;2.80;2.40;;;10.30;96.80;;;;;;5020764;28;20439;-35
2024/03/24 04:11:08;;;;;;;2.67;1.90;;;10.30;96.80;;;;;;5002296;28;20225;-30
2024/03/24 04:13:36;;;;;;;4.10;2.80;;;10.30;96.80;;;;;;5021020;28;20412;-32
2024/03/24 04:16:07;;;;;;;3.27;1.97;;;10.30;96.80;;;;;;5022390;28;20428;-29
2024/03/24 04:18:36;;;;;;;3.37;2.30;;;10.30;96.80;;;;;;5022774;28;21194;-30
2024/03/24 04:21:06;;;;;;;4.70;2.70;;;10.30;96.80;;;;;;5005088;28;20482;-34
2024/03/24 04:23:32;;;;;;;6.20;2.80;;;10.30;96.90;;;;;;5022132;28;22142;-31
2024/03/24 04:25:59;;;;;;;4.03;2.80;;;10.30;96.90;;;;;;5022903;28;20434;-30
2024/03/24 04:28:28;;;;;;;5.67;3.40;;;10.30;96.90;;;;;;5020899;28;20455;-31
2024/03/24 04:30:57;;;;;;;4.77;2.70;;;10.30;97.00;;;;;;5001692;28;21001;-29
2024/03/24 04:33:31;;;;;;;4.30;2.30;;;10.30;97.00;;;;;;5014778;28;20880;-28
2024/03/24 04:35:57;;;;;;;4.67;2.97;;;10.30;97.30;;;;;;4999227;28;20970;-29
2024/03/24 04:38:23;;;;;;;3.67;2.60;;;10.30;97.00;;;;;;4996153;28;21438;-33
2024/03/24 04:40:50;;;;;;;2.97;2.50;;;10.30;97.10;;;;;;5018309;28;20432;-31
2024/03/24 04:43:16;;;;;;;4.63;2.60;;;10.30;97.10;;;;;;4978399;28;20448;-30
2024/03/24 04:45:46;;;;;;;4.00;2.80;;;10.20;97.10;;;;;;5001050;28;20768;-32
2024/03/24 04:48:12;;;;;;;3.00;2.53;;;10.20;97.10;;;;;;5018815;28;20427;-26
2024/03/24 04:50:41;;;;;;;3.50;2.40;;;10.20;97.10;;;;;;5018058;28;20428;-33
2024/03/24 04:53:09;;;;;;;3.97;2.37;;;10.20;97.20;;;;;;4997554;28;20450;-33
2024/03/24 04:55:36;;;;;;;6.37;2.33;;;10.20;97.20;;;;;;5018175;28;20471;-34
2024/03/24 04:58:03;;;;;;;3.60;2.47;;;10.20;97.20;;;;;;4977500;28;21028;-28
2024/03/24 05:00:31;;;;;;;5.60;2.47;;;10.20;97.20;;;;;;5000213;28;20432;-33
2024/03/24 05:02:58;;;;;;;3.73;2.30;;;10.20;97.20;;;;;;4994312;28;20459;-29
2024/03/24 05:05:25;;;;;;;2.90;2.30;;;10.20;97.20;;;;;;4983816;28;20419;-30
2024/03/24 05:07:53;;;;;;;6.87;2.40;;;10.20;97.30;;;;;;4973948;28;20559;-29
2024/03/24 05:10:19;;;;;;;3.63;2.10;;;10.20;97.20;;;;;;4999839;28;20452;-31
2024/03/24 05:12:45;;;;;;;4.77;2.73;;;10.20;97.30;;;;;;4990381;28;21117;-29
2024/03/24 05:15:14;;;;;;;2.40;2.10;;;10.20;97.30;;;;;;5012337;28;20420;-33
2024/03/24 05:17:42;;;;;;;3.43;2.13;;;10.20;97.30;;;;;;4998612;28;20451;-33
2024/03/24 05:20:09;;;;;;;3.80;2.70;;;10.20;97.40;;;;;;5019379;28;20444;-35
2024/03/24 05:22:40;;;;;;;3.70;2.67;;;10.20;97.40;;;;;;5017319;28;20876;-30
2024/03/24 05:25:11;;;;;;;2.20;2.00;;;10.20;97.40;;;;;;5018281;28;21342;-33
2024/03/24 05:27:37;;;;;;;3.07;1.90;;;10.20;97.50;;;;;;4961429;28;20468;-27
2024/03/24 05:30:06;;;;;;;4.40;2.20;;;10.20;97.50;;;;;;5018716;28;21086;-28
2024/03/24 05:32:34;;;;;;;3.70;2.10;;;10.20;97.50;;;;;;5020252;28;20471;-29
2024/03/24 05:34:59;;;;;;;4.60;2.57;;;10.20;97.60;;;;;;4986201;28;21159;-29
2024/03/24 05:37:28;;;;;;;3.83;2.30;;;10.20;97.60;;;;;;5019764;28;20460;-33
2024/03/24 05:39:54;;;;;;;2.20;2.00;;;10.20;97.60;;;;;;5002794;28;20209;-27
2024/03/24 05:42:20;;;;;;;2.80;1.80;;;10.20;97.70;;;;;;5003006;28;20432;-31
2024/03/24 05:44:48;;;;;;;4.13;2.33;;;10.20;97.60;;;;;;5019263;28;20969;-28
2024/03/24 05:47:17;;;;;;;3.23;1.93;;;10.20;97.60;;;;;;5019550;28;20443;-27
2024/03/24 05:49:45;;;;;;;4.87;2.60;;;10.20;97.70;;;;;;5013321;28;20859;-27
2024/03/24 05:52:11;;;;;;;4.00;2.53;;;10.20;97.70;;;;;;5015404;28;20487;-28
2024/03/24 05:54:39;;;;;;;4.00;2.30;;;10.20;97.70;;;;;;5001356;28;20519;-29
2024/03/24 05:57:08;;;;;;;3.57;1.93;;;10.20;97.70;;;;;;5019052;28;21501;-30
2024/03/24 05:59:34;;;;;;;5.63;2.30;;;10.10;97.70;;;;;;5014489;28;20880;-27
2024/03/24 06:02:05;;;;;;;3.47;2.33;;;10.10;97.70;;;;;;4988785;28;20593;-29
2024/03/24 06:04:34;;;;;;;2.53;2.13;;;10.10;97.70;;;;;;5010258;28;20448;-28
2024/03/24 06:07:00;;;;;;;4.77;2.10;;;10.10;97.80;;;;;;5013709;28;20424;-29
2024/03/24 06:09:28;;;;;;;3.70;2.37;;;10.20;97.90;;;;;;4996837;28;20440;-27
2024/03/24 06:11:59;;;;;;;3.50;1.90;;;10.20;97.90;;;;;;5016482;28;20474;-28
2024/03/24 06:14:26;;;;;;;2.30;1.83;;;10.20;97.90;;;;;;5000721;28;20423;-28
2024/03/24 06:16:54;;;;;;;9.90;2.47;;;10.20;97.90;;;;;;5001284;28;21135;-29
2024/03/24 06:19:20;;;;;;;4.33;2.20;;;10.10;97.90;;;;;;4996256;28;20423;-32
2024/03/24 06:21:46;;;;;;;3.83;2.37;;;10.10;97.90;;;;;;5015741;28;20526;-28
2024/03/24 06:24:15;;;;;;;6.37;3.10;;;10.10;97.90;;;;;;5013343;28;20454;-28
2024/03/24 06:26:41;;;;;;;4.53;2.80;;;10.10;97.90;;;;;;5016013;28;20452;-27
2024/03/24 06:29:11;;;;;;;6.47;3.57;;;10.10;98.00;;;;;;4998414;28;20444;-30
2024/03/24 06:31:40;;;;;;;4.40;3.17;;;10.10;98.00;;;;;;5011385;28;20475;-29
2024/03/24 06:34:08;;;;;;;5.03;2.90;;;10.10;98.00;;;;;;4997673;28;20436;-29
2024/03/24 06:36:34;;;;;;;3.37;2.30;;;10.10;98.10;;;;;;5017663;28;20424;-27
2024/03/24 06:39:01;;;;;;;5.33;3.03;;;10.10;98.10;;;;;;5018966;28;20890;-28
2024/03/24 06:41:38;;;;;;;4.80;3.40;;;10.10;98.10;;;;;;5001442;28;20454;-31
2024/03/24 06:44:12;;;;;;;7.13;4.83;;;10.10;98.10;;;;;;4993934;28;20457;-27
2024/03/24 06:46:45;;;;;;;7.40;3.87;;;10.10;98.10;;;;;;5018619;28;20539;-27
2024/03/24 06:49:13;;;;;;;3.83;2.93;;;10.10;97.90;;;;;;5018837;28;20548;-28
2024/03/24 06:51:39;;;;;;;5.00;2.87;;;10.10;97.80;;;;;;5019090;28;20463;-30
2024/03/24 06:54:05;;;;;;;3.10;2.40;;;10.10;97.60;;;;;;5017371;28;20474;-28
2024/03/24 06:56:31;;;;;;;6.23;3.37;;;10.10;97.50;;;;;;5016188;28;20487;-28
2024/03/24 06:59:00;;;;;;;6.30;3.27;;;10.10;97.50;;;;;;5000416;28;20461;-28
2024/03/24 07:01:30;;;;;;;4.33;2.87;;;10.10;97.40;;;;;;5007359;28;20564;-29
2024/03/24 07:03:58;;;;;;;4.93;2.70;;;10.10;97.40;;;;;;5015633;28;20432;-28
2024/03/24 07:06:27;;;;;;;5.60;2.97;;;10.10;97.30;;;;;;5020381;28;20436;-27
2024/03/24 07:08:52;;;;;;;4.93;2.60;;;10.10;97.30;;;;;;5012542;28;20583;-27
2024/03/24 07:11:19;;;;;;;3.27;2.10;;;10.10;97.30;;;;;;4998467;28;21079;-28
2024/03/24 07:13:45;;;;;;;3.73;2.60;;;10.10;97.40;;;;;;5012620;28;20463;-28
2024/03/24 07:16:13;;;;;;;3.07;2.27;;;10.10;97.40;;;;;;5018140;28;21359;-28
2024/03/24 07:18:39;;;;;;;2.83;1.90;;;10.00;97.30;;;;;;4995466;28;20668;-27
2024/03/24 07:21:07;;;;;;;6.83;2.60;;;10.00;97.40;;;;;;5017925;28;20525;-33
2024/03/24 07:23:33;;;;;;;3.57;2.30;;;10.00;97.40;;;;;;4985137;28;20861;-30
2024/03/24 07:25:59;;;;;;;3.03;1.97;;;10.00;97.40;;;;;;5000864;28;20447;-31
2024/03/24 07:28:27;;;;;;;5.20;1.80;;;10.00;97.40;;;;;;5019867;28;20598;-28
2024/03/24 07:30:53;;;;;;;3.50;2.60;;;10.00;97.50;;;;;;5018546;28;20459;-26
2024/03/24 07:33:20;;;;;;;3.90;2.13;;;10.00;97.50;;;;;;5017656;28;20412;-29
2024/03/24 07:35:46;;;;;;;3.17;1.77;;;10.00;97.50;;;;;;5000861;28;20426;-28
2024/03/24 07:38:12;;;;;;;3.57;2.50;;;10.00;97.50;;;;;;5001145;28;20428;-30
2024/03/24 07:40:40;;;;;;;2.70;1.87;;;10.00;97.50;;;;;;5017301;28;20473;-32
2024/03/24 07:43:06;;;;;;;3.47;2.20;;;10.00;97.50;;;;;;5017605;28;20455;-30
2024/03/24 07:45:32;;;;;;;3.90;2.23;;;10.00;97.60;;;;;;5000329;28;21137;-30
2024/03/24 07:47:58;;;;;;;2.07;1.80;;;10.00;97.60;;;;;;5018940;28;20439;-31
2024/03/24 07:50:27;;;;;;;2.93;2.00;;;10.00;97.60;;;;;;5000112;28;20992;-30
2024/03/24 07:52:53;;;;;;;5.80;2.23;;;10.00;97.70;;;;;;4999874;28;20518;-29
2024/03/24 07:55:19;;;;;;;3.77;2.00;;;10.00;97.70;;;;;;5018640;28;20479;-31
2024/03/24 07:57:45;;;;;;;7.43;2.03;;;10.00;97.70;;;;;;5018049;28;20879;-28
2024/03/24 08:00:12;;;;;;;2.80;2.13;;;10.00;97.80;;;;;;5017856;28;20424;-29
2024/03/24 08:02:41;;;;;;;2.93;1.80;;;10.00;97.80;;;;;;4983190;28;20439;-29
2024/03/24 08:05:09;;;;;;;5.37;2.00;;;10.00;97.80;;;;;;4999895;28;20416;-30
2024/03/24 08:07:35;;;;;;;2.40;1.60;;;10.00;97.80;;;;;;5017626;28;20925;-29
2024/03/24 08:10:02;;;;;;;3.20;2.47;;;10.00;97.90;;;;;;5018143;28;21074;-32
2024/03/24 08:12:28;;;;;;;2.80;1.80;;;10.00;97.90;;;;;;5017676;28;21015;-29
2024/03/24 08:14:54;;;;;;;3.47;1.87;;;10.00;97.90;;;;;;5017951;28;20424;-30
2024/03/24 08:17:20;;;;;;;3.70;2.10;;;10.00;98.00;;;;;;5002603;28;20197;-29
2024/03/24 08:19:53;;;;;;;3.53;1.93;;;10.00;98.10;;;;;;5004720;28;20871;-28
2024/03/24 08:22:20;;;;;;;4.50;2.10;;;10.00;98.20;;;;;;4999627;28;20448;-29
2024/03/24 08:24:47;;;;;;;2.53;1.63;;;10.00;98.20;;;;;;5017583;28;20472;-27
2024/03/24 08:27:13;;;;;;;2.40;2.07;;;9.90;98.80;;;;;;5000386;28;20558;-30
2024/03/24 08:29:38;;;;;;;3.67;2.20;;;9.90;98.80;;;;;;4985252;28;20563;-29
2024/03/24 08:32:06;;;;;;;2.70;1.77;;;9.90;98.80;;;;;;4998372;28;20472;-29
2024/03/24 08:34:32;;;;;;;2.10;1.80;;;10.00;98.30;;;;;;4989763;28;20431;-30
2024/03/24 08:36:58;;;;;;;2.40;1.80;;;9.90;98.90;;;;;;5017290;28;20490;-29
2024/03/24 08:39:26;;;;;;;3.50;2.20;;;9.90;98.80;;;;;;5014806;28;20523;-28
2024/03/24 08:41:52;;;;;;;5.30;2.87;;;9.90;99.10;;;;;;4995911;28;21131;-31
2024/03/24 08:44:20;;;;;;;3.20;2.33;;;9.90;99.60;;;;;;5015896;28;20453;-26
2024/03/24 08:46:50;;;;;;;4.03;2.30;;;9.90;99.90;;;;;;5014514;28;20423;-30
2024/03/24 08:49:16;;;;;;;3.50;2.53;;;9.90;99.90;;;;;;5015116;28;20451;-31
2024/03/24 08:51:42;;;;;;;5.23;2.20;;;9.90;99.80;;;;;;5015204;28;20516;-28
2024/03/24 08:54:08;;;;;;;3.10;2.17;;;9.90;99.80;;;;;;4996921;28;20487;-29
2024/03/24 08:56:35;;;;;;;4.00;2.40;;;9.90;99.70;;;;;;5001129;28;20844;-29
2024/03/24 08:59:01;;;;;;;4.20;2.73;;;9.90;99.70;;;;;;5001055;28;20455;-27
2024/03/24 09:01:29;;;;;;;3.87;2.27;;;9.90;99.60;;;;;;4995970;28;20491;-28
2024/03/24 09:03:55;;;;;;;2.90;2.10;;;9.90;99.60;;;;;;5018352;28;20483;-26
2024/03/24 09:06:21;;;;;;;7.13;2.37;;;9.90;99.60;;;;;;5018837;28;20423;-29
2024/03/24 09:08:50;;;;;;;5.00;2.30;;;9.90;99.60;;;;;;5000377;28;20994;-29
2024/03/24 09:11:16;;;;;;;3.50;2.20;;;10.00;99.20;;;;;;5018479;28;20479;-28
2024/03/24 09:13:44;;;;;;;3.20;2.50;;;9.90;99.80;;;;;;5018919;28;21258;-27
2024/03/24 09:16:13;;;;;;;4.33;2.40;;;9.90;99.90;;;;;;4980493;28;20515;-33
2024/03/24 09:18:41;;;;;;;5.17;2.80;;;9.90;99.90;;;;;;5005460;28;20450;-29
2024/03/24 09:21:07;;;;;;;8.53;2.90;;;9.90;99.90;;;;;;5018758;28;20435;-29
2024/03/24 09:23:35;;;;;;;6.10;3.03;;;10.00;99.40;;;;;;5018788;28;21056;-27
2024/03/24 09:26:05;;;;;;;3.13;2.63;;;10.00;99.50;;;;;;5019277;28;21269;-28
2024/03/24 09:28:33;;;;;;;4.47;3.33;;;10.00;99.50;;;;;;5016460;28;20482;-28
2024/03/24 09:31:03;;;;;;;6.13;2.83;;;10.00;99.50;;;;;;5018525;28;20463;-28
2024/03/24 09:33:29;;;;;;;6.10;3.43;;;10.00;99.60;;;;;;5000785;28;20419;-28
2024/03/24 09:35:59;;;;;;;4.50;2.93;;;10.00;99.70;;;;;;5019473;28;20424;-29
2024/03/24 09:38:27;;;;;;;6.10;3.23;;;10.00;99.70;;;;;;5000817;28;20524;-30
2024/03/24 09:40:53;;;;;;;5.50;3.00;;;10.00;99.70;;;;;;5017804;28;20427;-30
2024/03/24 09:43:20;;;;;;;6.37;3.40;;;10.00;99.70;;;;;;5018161;28;20439;-29
2024/03/24 09:45:46;;;;;;;6.00;2.80;;;10.00;99.70;;;;;;5017949;28;20423;-29
2024/03/24 09:48:17;;;;;;;4.20;3.10;;;10.00;99.70;;;;;;5021182;28;20452;-28
2024/03/24 09:50:44;;;;;;;4.77;3.10;;;10.00;99.70;;;;;;5021662;28;20502;-32
2024/03/24 09:53:19;;;;;;;5.70;3.40;;;10.00;99.70;;;;;;5016608;28;20518;-28
2024/03/24 09:55:46;;;;;;;6.57;3.40;;;10.00;99.70;;;;;;4984667;28;20446;-27
2024/03/24 09:58:12;;;;;;;6.30;3.57;;;10.00;99.70;;;;;;5002476;28;20491;-29
2024/03/24 10:00:42;;;;;;;7.80;4.10;;;10.00;99.70;;;;;;5001606;28;20817;-32
2024/03/24 10:03:08;;;;;;;6.13;3.57;;;10.00;99.70;;;;;;5018992;28;20515;-31
2024/03/24 10:05:36;;;;;;;7.50;3.57;;;10.00;99.80;;;;;;4995299;28;20429;-29
2024/03/24 10:08:03;;;;;;;9.83;3.43;;;10.00;99.80;;;;;;4999164;28;20458;-30
2024/03/24 10:10:32;;;;;;;7.50;2.80;;;10.10;99.60;;;;;;4996871;28;20440;-29
2024/03/24 10:13:00;;;;;;;4.53;3.00;;;10.00;99.40;;;;;;5019148;28;20594;-30
2024/03/24 10:15:27;;;;;;;8.60;3.60;;;10.10;99.30;;;;;;5021622;28;20450;-29
2024/03/24 10:18:06;;;;;;;4.47;3.30;;;10.10;99.60;;;;;;5022550;28;20775;-32
2024/03/24 10:20:36;;;;;;;5.40;3.60;;;10.10;99.30;;;;;;5001207;28;20436;-30
2024/03/24 10:23:04;;;;;;;8.63;3.30;;;10.10;99.20;;;;;;5000479;28;20428;-30
2024/03/24 10:25:32;;;;;;;6.30;3.00;;;10.10;99.40;;;;;;5000132;28;20477;-34
2024/03/24 10:27:59;;;;;;;7.90;3.50;;;10.10;99.50;;;;;;4974514;28;20538;-30
2024/03/24 10:30:25;;;;;;;7.00;3.43;;;10.10;99.70;;;;;;5018842;28;20436;-31
2024/03/24 10:32:52;;;;;;;4.33;2.70;;;10.10;99.70;;;;;;4999918;28;20479;-34
2024/03/24 10:35:20;;;;;;;7.13;3.20;;;10.10;99.70;;;;;;5017461;28;20434;-30
2024/03/24 10:37:46;;;;;;;8.70;3.70;;;10.10;99.90;;;;;;4999706;28;20460;-32
2024/03/24 10:40:13;;;;;;;5.27;3.60;;;10.10;99.90;;;;;;4998465;28;20431;-29
2024/03/24 10:42:47;;;;;;;4.97;3.23;;;10.10;99.90;;;;;;4983114;28;20547;-32
2024/03/24 10:45:21;;;;;;;8.87;3.73;;;10.20;99.90;;;;;;5017254;28;20447;-30
2024/03/24 10:47:58;;;;;;;7.57;3.20;;;10.20;99.90;;;;;;4999316;28;20491;-33
2024/03/24 10:50:25;;;;;;;10.77;3.50;;;10.20;99.90;;;;;;5015619;28;20747;-32
2024/03/24 10:52:59;;;;;;;4.97;2.87;;;10.20;99.90;;;;;;5013440;28;20472;-31
2024/03/24 10:55:29;;;;;;;5.57;2.97;;;10.20;99.90;;;;;;5007805;28;20911;-33
2024/03/24 10:57:57;;;;;;;4.53;3.10;;;10.20;99.90;;;;;;4964200;28;20506;-32
2024/03/24 11:00:28;;;;;;;9.80;3.70;;;10.20;99.80;;;;;;4990323;28;20415;-33
2024/03/24 11:03:04;;;;;;;7.40;3.20;;;10.20;99.60;;;;;;4991646;28;20436;-34
2024/03/24 11:05:35;;;;;;;7.23;2.80;;;10.20;99.50;;;;;;5013057;28;20531;-29
2024/03/24 11:08:03;;;;;;;9.20;3.50;;;10.20;99.60;;;;;;5013381;28;20455;-31
2024/03/24 11:10:29;;;;;;;6.90;3.73;;;10.20;99.60;;;;;;4998402;28;21028;-32
2024/03/24 11:12:55;;;;;;;8.33;3.03;;;10.30;99.60;;;;;;5020208;28;20460;-30
2024/03/24 11:15:27;;;;;;;8.73;3.70;;;10.30;99.40;;;;;;4980545;28;20513;-30
2024/03/24 11:17:55;;;;;;;5.17;2.83;;;10.30;99.30;;;;;;4998075;28;20457;-31
2024/03/24 11:20:24;;;;;;;5.63;3.13;;;10.30;99.20;;;;;;5017007;28;20432;-29
2024/03/24 11:22:53;;;;;;;5.77;2.73;;;10.30;99.20;;;;;;5001341;28;20455;-27
2024/03/24 11:25:19;;;;;;;4.53;2.70;;;10.30;99.20;;;;;;5019487;28;20427;-29
2024/03/24 11:27:50;;;;;;;5.83;2.40;;;10.30;99.10;;;;;;5018706;28;20448;-30
2024/03/24 11:30:17;;;;;;;8.73;2.60;;;10.30;99.10;;;;;;5017356;28;21121;-26
2024/03/24 11:32:58;;;;;;;5.50;2.77;;;10.30;99.10;;;;;;4983212;28;20487;-27
2024/03/24 11:35:26;;;;;;;4.77;2.57;;;10.30;99.20;;;;;;5017135;28;20455;-32
2024/03/24 11:37:53;;;;;;;6.83;2.50;;;10.30;99.20;;;;;;5000365;28;20848;-30
2024/03/24 11:40:24;;;;;;;6.20;2.40;;;10.30;99.20;;;;;;4958114;28;20494;-25
2024/03/24 11:42:58;;;;;;;6.10;2.53;;;10.30;99.20;;;;;;4972886;28;20452;-28
2024/03/24 11:45:25;;;;;;;8.20;2.60;;;10.30;99.10;;;;;;4982797;28;20429;-31
2024/03/24 11:47:51;;;;;;;8.37;2.40;;;10.40;99.50;;;;;;4989239;28;20510;-27
2024/03/24 11:50:17;;;;;;;6.80;3.00;;;10.40;99.10;;;;;;5000476;28;21251;-30
2024/03/24 11:52:47;;;;;;;3.03;2.37;;;10.40;99.00;;;;;;4999206;28;20491;-28
2024/03/24 11:55:16;;;;;;;3.90;2.40;;;10.40;99.00;;;;;;4983483;28;21277;-32
2024/03/24 11:57:45;;;;;;;11.60;2.60;;;10.40;99.10;;;;;;4999795;28;20470;-29
2024/03/24 12:00:13;;;;;;;6.50;2.50;;;10.40;99.20;;;;;;4999133;28;20431;-29
2024/03/24 12:02:38;;;;;;;12.70;2.87;;;10.40;99.20;;;;;;5009352;28;20492;-28
2024/03/24 12:05:05;;;;;;;6.50;2.40;;;10.40;99.20;;;;;;4972518;28;20550;-27
2024/03/24 12:07:31;;;;;;;7.07;2.20;;;10.40;99.30;;;;;;5007163;28;20448;-26
2024/03/24 12:09:57;;;;;;;5.00;2.30;;;10.40;99.40;;;;;;4982637;28;20466;-28
2024/03/24 12:12:24;;;;;;;8.10;2.77;;;10.40;99.40;;;;;;5017981;28;20640;-28
2024/03/24 12:14:51;;;;;;;6.40;2.33;;;10.40;99.40;;;;;;4996286;28;20800;-30
2024/03/24 12:17:23;;;;;;;6.27;2.57;;;10.40;99.50;;;;;;5021834;28;20535;-26
2024/03/24 12:19:50;;;;;;;4.63;2.63;;;10.50;99.70;;;;;;5017337;28;20424;-27
2024/03/24 12:22:16;;;;;;;7.47;2.93;;;10.40;99.70;;;;;;5002777;28;20493;-28
2024/03/24 12:24:42;;;;;;;6.63;2.73;;;10.50;99.80;;;;;;5011906;28;20907;-32
2024/03/24 12:27:11;;;;;;;6.77;2.27;;;10.50;99.80;;;;;;5017107;28;21097;-29
2024/03/24 12:29:37;;;;;;;3.90;2.37;;;10.50;99.80;;;;;;5015775;28;21253;-27
2024/03/24 12:32:11;;;;;;;6.87;2.63;;;10.50;99.90;;;;;;5016867;28;20560;-28
2024/03/24 12:34:37;;;;;;;10.73;2.50;;;10.50;99.90;;;;;;5015405;28;20439;-31
2024/03/24 12:37:07;;;;;;;5.30;2.50;;;10.50;99.90;;;;;;5012158;28;20436;-25
2024/03/24 12:39:34;;;;;;;5.13;2.80;;;10.50;99.90;;;;;;5016336;28;20424;-28
2024/03/24 12:42:13;;;;;;;5.63;2.47;;;10.50;99.90;;;;;;5015576;28;20478;-28
2024/03/24 12:44:43;;;;;;;9.00;2.30;;;10.50;99.90;;;;;;4986370;28;20439;-26
2024/03/24 12:47:16;;;;;;;7.20;3.00;;;10.50;99.90;;;;;;4994407;28;20446;-30
2024/03/24 12:49:45;;;;;;;3.83;2.60;;;10.50;99.90;;;;;;5015193;28;21275;-26